createdAt,value
2023-05-17T00:01:20.929Z,12.03
2023-05-17T00:03:49.058Z,11.93
2023-05-17T00:06:17.100Z,11.81
2023-05-17T00:08:45.149Z,11.74
2023-05-17T00:11:13.223Z,11.62
2023-05-17T00:13:42.506Z,11.64
2023-05-17T00:16:10.784Z,11.50
2023-05-17T00:18:42.305Z,11.51
2023-05-17T00:21:10.744Z,11.51
2023-05-17T00:23:39.208Z,11.63
2023-05-17T00:26:07.263Z,11.63
2023-05-17T00:28:35.564Z,11.65
2023-05-17T00:31:03.582Z,11.63
2023-05-17T00:33:31.854Z,11.67
2023-05-17T00:36:01.390Z,11.70
2023-05-17T00:38:29.332Z,11.74
2023-05-17T00:40:57.979Z,11.69
2023-05-17T00:43:26.408Z,11.61
2023-05-17T00:45:54.726Z,11.56
2023-05-17T00:48:25.557Z,11.61
2023-05-17T00:50:55.206Z,11.60
2023-05-17T00:53:25.468Z,11.55
2023-05-17T00:55:56.051Z,11.62
2023-05-17T00:58:26.311Z,11.73
2023-05-17T01:00:54.653Z,11.82
2023-05-17T01:03:23.448Z,11.83
2023-05-17T01:05:53.605Z,11.86
2023-05-17T01:08:22.287Z,11.90
2023-05-17T01:10:59.465Z,11.89
2023-05-17T01:13:36.756Z,11.91
2023-05-17T01:16:12.956Z,11.92
2023-05-17T01:18:46.129Z,11.94
2023-05-17T01:21:38.547Z,11.91
2023-05-17T01:24:26.680Z,11.68
2023-05-17T01:26:58.041Z,11.61
2023-05-17T01:29:29.845Z,11.57
2023-05-17T01:31:59.607Z,11.50
2023-05-17T01:34:30.744Z,11.42
2023-05-17T01:37:00.101Z,11.32
2023-05-17T01:39:28.374Z,11.29
2023-05-17T01:42:06.743Z,11.29
2023-05-17T01:44:42.563Z,11.23
2023-05-17T01:47:15.781Z,11.11
2023-05-17T01:49:49.648Z,11.02
2023-05-17T01:52:21.610Z,10.93
2023-05-17T01:54:57.578Z,10.93
2023-05-17T01:57:36.556Z,10.90
2023-05-17T02:00:08.152Z,10.84
2023-05-17T02:02:37.275Z,10.77
2023-05-17T02:05:05.786Z,10.77
2023-05-17T02:07:34.890Z,10.62
2023-05-17T02:10:03.849Z,10.56
2023-05-17T02:12:33.311Z,10.56
2023-05-17T02:15:01.282Z,10.62
2023-05-17T02:17:29.505Z,10.59
2023-05-17T02:19:57.492Z,10.53
2023-05-17T02:22:25.822Z,10.44
2023-05-17T02:24:53.819Z,10.43
2023-05-17T02:27:25.335Z,10.48
2023-05-17T02:29:54.953Z,10.44
2023-05-17T02:32:23.096Z,10.35
2023-05-17T02:34:51.237Z,10.34
2023-05-17T02:37:19.258Z,10.24
2023-05-17T02:39:47.741Z,10.21
2023-05-17T02:42:15.757Z,10.14
2023-05-17T02:44:43.840Z,10.19
2023-05-17T02:47:13.319Z,10.10
2023-05-17T02:49:43.251Z,10.14
2023-05-17T02:52:11.348Z,10.17
2023-05-17T02:54:39.300Z,10.12
2023-05-17T02:57:07.569Z,10.16
2023-05-17T02:59:35.548Z,10.03
2023-05-17T03:02:03.621Z,9.92
2023-05-17T03:04:33.541Z,9.88
2023-05-17T03:07:01.673Z,9.81
2023-05-17T03:09:30.946Z,9.76
2023-05-17T03:11:59.214Z,9.68
2023-05-17T03:14:28.627Z,9.75
2023-05-17T03:16:58.429Z,9.79
2023-05-17T03:19:26.703Z,9.77
2023-05-17T03:21:56.481Z,9.71
2023-05-17T03:24:24.401Z,9.75
2023-05-17T03:26:55.398Z,9.79
2023-05-17T03:29:23.589Z,9.78
2023-05-17T03:31:51.939Z,9.78
2023-05-17T03:34:20.055Z,9.82
2023-05-17T03:36:48.009Z,9.80
2023-05-17T03:39:17.601Z,9.97
2023-05-17T03:41:45.668Z,9.93
2023-05-17T03:44:13.631Z,9.87
2023-05-17T03:46:41.591Z,9.93
2023-05-17T03:49:09.728Z,9.93
2023-05-17T03:51:38.086Z,9.89
2023-05-17T03:54:06.417Z,9.86
2023-05-17T03:56:35.759Z,9.83
2023-05-17T03:59:03.918Z,9.83
2023-05-17T04:01:31.863Z,9.89
2023-05-17T04:04:01.462Z,9.87
2023-05-17T04:06:29.768Z,9.87
2023-05-17T04:08:59.577Z,9.74
2023-05-17T04:11:28.095Z,9.77
2023-05-17T04:13:58.017Z,9.70
2023-05-17T04:16:25.920Z,9.65
2023-05-17T04:18:54.765Z,9.72
2023-05-17T04:21:22.893Z,9.77
2023-05-17T04:23:51.589Z,9.58
2023-05-17T04:26:20.577Z,9.76
2023-05-17T04:28:48.646Z,9.87
2023-05-17T04:31:19.489Z,9.99
2023-05-17T04:33:47.677Z,9.95
2023-05-17T04:36:15.912Z,10.05
2023-05-17T04:38:43.900Z,10.15
2023-05-17T04:41:12.242Z,10.24
2023-05-17T04:43:40.505Z,10.40
2023-05-17T04:46:08.851Z,10.57
2023-05-17T04:51:07.481Z,10.78
2023-05-17T04:53:35.758Z,10.88
2023-05-17T04:56:04.309Z,10.72
2023-05-17T04:58:33.071Z,10.79
2023-05-17T05:01:01.122Z,10.81
2023-05-17T05:03:29.218Z,10.84
2023-05-17T05:06:00.869Z,10.85
2023-05-17T05:08:30.064Z,10.93
2023-05-17T05:10:58.467Z,11.17
2023-05-17T05:13:26.353Z,11.22
2023-05-17T05:15:54.607Z,11.28
2023-05-17T05:18:22.703Z,11.38
2023-05-17T05:20:50.852Z,11.40
2023-05-17T05:23:20.238Z,11.69
2023-05-17T05:25:48.378Z,11.78
2023-05-17T05:28:16.319Z,11.80
2023-05-17T05:30:44.380Z,12.00
2023-05-17T05:33:12.537Z,12.07
2023-05-17T05:35:41.073Z,12.13
2023-05-17T05:38:11.750Z,12.22
2023-05-17T05:40:42.598Z,12.27
2023-05-17T05:43:10.676Z,12.11
2023-05-17T05:45:41.234Z,12.35
2023-05-17T05:48:09.650Z,12.50
2023-05-17T05:50:37.757Z,12.65
2023-05-17T05:53:17.126Z,12.45
2023-05-17T05:55:49.570Z,12.33
2023-05-17T05:58:17.646Z,12.17
2023-05-17T06:00:52.053Z,12.16
2023-05-17T06:03:20.227Z,12.07
2023-05-17T06:05:48.512Z,12.09
2023-05-17T06:08:17.178Z,12.18
2023-05-17T06:10:45.345Z,12.09
2023-05-17T06:13:14.788Z,12.08
2023-05-17T06:15:43.333Z,12.40
2023-05-17T06:18:11.867Z,12.64
2023-05-17T06:20:40.248Z,12.67
2023-05-17T06:23:08.175Z,12.89
2023-05-17T06:25:37.602Z,12.79
2023-05-17T06:28:06.917Z,12.85
2023-05-17T06:30:40.640Z,12.67
2023-05-17T06:33:09.100Z,12.78
2023-05-17T06:35:54.902Z,12.98
2023-05-17T06:38:24.144Z,13.12
2023-05-17T06:40:57.776Z,13.19
2023-05-17T06:43:26.354Z,13.27
2023-05-17T06:45:55.881Z,12.95
2023-05-17T06:48:24.272Z,13.28
2023-05-17T06:50:52.615Z,13.33
2023-05-17T06:53:20.754Z,13.44
2023-05-17T06:55:48.950Z,13.50
2023-05-17T06:58:17.130Z,14.06
2023-05-17T07:00:46.092Z,14.31
2023-05-17T07:03:16.919Z,14.13
2023-05-17T07:05:45.414Z,13.92
2023-05-17T07:08:15.375Z,13.55
2023-05-17T07:10:45.671Z,13.96
2023-05-17T07:13:15.210Z,14.19
2023-05-17T07:15:43.555Z,14.54
2023-05-17T07:18:12.244Z,14.43
2023-05-17T07:20:43.468Z,15.31
2023-05-17T07:23:11.566Z,15.68
2023-05-17T07:25:43.514Z,15.73
2023-05-17T07:28:11.805Z,15.23
2023-05-17T07:30:40.140Z,15.14
2023-05-17T07:33:08.504Z,14.30
2023-05-17T07:35:36.711Z,14.54
2023-05-17T07:38:06.529Z,14.52
2023-05-17T07:40:34.587Z,14.51
2023-05-17T07:43:02.538Z,14.67
2023-05-17T07:45:30.711Z,14.35
2023-05-17T07:47:58.953Z,14.75
2023-05-17T07:50:28.105Z,15.84
2023-05-17T07:52:56.546Z,17.54
2023-05-17T07:55:26.049Z,19.04
2023-05-17T07:57:54.134Z,21.06
2023-05-17T08:00:23.089Z,21.65
2023-05-17T08:02:51.234Z,21.89
2023-05-17T08:05:21.366Z,21.49
2023-05-17T08:07:49.551Z,21.48
2023-05-17T08:10:17.762Z,23.20
2023-05-17T08:12:47.395Z,22.20
2023-05-17T08:15:15.463Z,22.49
2023-05-17T08:17:43.710Z,21.35
2023-05-17T08:20:12.391Z,19.35
2023-05-17T08:22:40.700Z,18.10
2023-05-17T08:25:09.426Z,16.85
2023-05-17T08:27:37.390Z,16.57
2023-05-17T08:30:11.888Z,16.06
2023-05-17T08:32:45.155Z,15.49
2023-05-17T08:35:13.734Z,15.11
2023-05-17T08:37:42.991Z,15.10
2023-05-17T08:40:11.828Z,15.43
2023-05-17T08:42:40.091Z,17.32
2023-05-17T08:45:12.251Z,19.35
2023-05-17T08:47:42.406Z,21.36
2023-05-17T08:50:13.002Z,20.07
2023-05-17T08:52:42.102Z,20.43
2023-05-17T08:55:11.225Z,20.11
2023-05-17T08:57:40.505Z,19.21
2023-05-17T09:00:14.749Z,18.22
2023-05-17T09:02:44.265Z,17.49
2023-05-17T09:05:13.872Z,17.75
2023-05-17T09:07:42.982Z,17.38
2023-05-17T09:10:13.975Z,16.75
2023-05-17T09:12:42.509Z,17.69
2023-05-17T09:15:17.080Z,19.22
2023-05-17T09:17:51.737Z,18.98
2023-05-17T09:20:25.480Z,20.22
2023-05-17T09:22:53.655Z,19.88
2023-05-17T09:25:22.330Z,18.84
2023-05-17T09:27:53.542Z,17.92
2023-05-17T09:30:29.631Z,17.28
2023-05-17T09:32:58.898Z,16.60
2023-05-17T09:35:30.888Z,16.25
2023-05-17T09:38:07.677Z,16.27
2023-05-17T09:40:39.910Z,16.57
2023-05-17T09:43:08.349Z,16.83
2023-05-17T09:45:38.265Z,16.76
2023-05-17T09:48:14.230Z,16.57
2023-05-17T09:50:47.373Z,16.56
2023-05-17T09:53:34.143Z,16.45
2023-05-17T09:56:03.602Z,16.80
2023-05-17T09:58:33.820Z,17.44
2023-05-17T10:01:05.191Z,17.70
2023-05-17T10:03:35.941Z,17.60
2023-05-17T10:06:08.775Z,17.54
2023-05-17T10:08:39.141Z,17.44
2023-05-17T10:11:10.315Z,17.74
2023-05-17T10:13:51.456Z,18.28
2023-05-17T10:16:22.427Z,17.74
2023-05-17T10:18:51.713Z,17.62
2023-05-17T10:21:21.073Z,17.51
2023-05-17T10:23:50.677Z,17.81
2023-05-17T10:26:19.363Z,17.40
2023-05-17T10:28:52.138Z,16.71
2023-05-17T10:31:22.496Z,16.17
2023-05-17T10:33:51.948Z,16.39
2023-05-17T10:36:22.010Z,17.11
2023-05-17T10:38:50.341Z,17.28
2023-05-17T10:41:19.733Z,17.06
2023-05-17T10:43:49.104Z,16.73
2023-05-17T10:46:21.800Z,16.79
2023-05-17T10:48:52.690Z,17.40
2023-05-17T10:51:25.415Z,17.35
2023-05-17T10:54:05.951Z,17.31
2023-05-17T10:56:34.763Z,17.01
2023-05-17T10:59:23.966Z,16.78
2023-05-17T11:01:54.449Z,16.79
2023-05-17T11:04:26.896Z,16.67
2023-05-17T11:06:57.440Z,16.43
2023-05-17T11:09:25.516Z,16.25
2023-05-17T11:12:07.269Z,15.71
2023-05-17T11:14:48.145Z,15.42
2023-05-17T11:17:17.908Z,15.46
2023-05-17T11:20:03.896Z,15.75
2023-05-17T11:22:38.564Z,15.95
2023-05-17T11:25:11.770Z,16.01
2023-05-17T11:27:45.535Z,16.47
2023-05-17T11:30:22.902Z,16.42
2023-05-17T11:32:52.834Z,16.05
2023-05-17T11:35:27.792Z,15.81
2023-05-17T11:38:14.064Z,15.82
2023-05-17T11:40:42.691Z,16.04
2023-05-17T11:43:15.131Z,16.01
2023-05-17T11:45:52.908Z,15.76
2023-05-17T11:48:23.183Z,15.66
2023-05-17T11:50:53.929Z,15.94
2023-05-17T11:53:22.439Z,15.69
2023-05-17T11:55:51.849Z,15.48
2023-05-17T11:58:22.244Z,15.39
2023-05-17T12:00:54.442Z,15.34
2023-05-17T12:03:25.000Z,15.21
2023-05-17T12:06:04.151Z,15.12
2023-05-17T12:08:34.377Z,15.10
2023-05-17T12:11:03.260Z,15.21
2023-05-17T12:13:35.848Z,15.44
2023-05-17T12:16:08.677Z,15.54
2023-05-17T12:18:38.251Z,15.49
2023-05-17T12:21:09.104Z,15.57
2023-05-17T12:23:38.211Z,15.46
2023-05-17T12:26:10.292Z,15.60
2023-05-17T12:28:40.145Z,15.98
2023-05-17T12:31:11.049Z,15.73
2023-05-17T12:33:41.479Z,15.81
2023-05-17T12:36:12.764Z,15.87
2023-05-17T12:38:43.150Z,15.91
2023-05-17T12:41:13.990Z,15.74
2023-05-17T12:43:44.821Z,15.62
2023-05-17T12:46:14.524Z,15.59
2023-05-17T12:48:43.553Z,15.56
2023-05-17T12:51:14.978Z,15.72
2023-05-17T12:53:44.686Z,15.57
2023-05-17T12:56:18.151Z,15.68
2023-05-17T12:58:46.821Z,15.82
2023-05-17T13:01:14.893Z,16.03
2023-05-17T13:03:43.509Z,16.21
2023-05-17T13:06:13.038Z,16.07
2023-05-17T13:08:43.528Z,15.90
2023-05-17T13:11:14.766Z,16.08
2023-05-17T13:13:43.786Z,15.98
2023-05-17T13:16:12.032Z,16.04
2023-05-17T13:18:50.730Z,16.31
2023-05-17T13:21:21.293Z,16.32
2023-05-17T13:23:50.974Z,16.15
2023-05-17T13:26:19.817Z,15.92
2023-05-17T13:28:47.779Z,15.72
2023-05-17T13:31:16.081Z,15.57
2023-05-17T13:33:45.423Z,15.45
2023-05-17T13:36:13.710Z,15.27
2023-05-17T13:38:43.529Z,15.12
2023-05-17T13:41:11.908Z,14.97
2023-05-17T13:43:40.106Z,15.11
2023-05-17T13:46:08.371Z,15.43
2023-05-17T13:48:36.571Z,15.57
2023-05-17T13:51:04.769Z,15.70
2023-05-17T13:53:32.988Z,15.80
2023-05-17T13:56:02.508Z,15.52
2023-05-17T13:58:30.582Z,15.75
2023-05-17T14:00:58.658Z,15.70
2023-05-17T14:03:26.914Z,15.56
2023-05-17T14:05:55.197Z,15.74
2023-05-17T14:08:23.695Z,15.92
2023-05-17T14:10:51.854Z,16.09
2023-05-17T14:13:21.387Z,16.03
2023-05-17T14:15:49.400Z,16.12
2023-05-17T14:18:17.446Z,16.24
2023-05-17T14:20:45.835Z,16.28
2023-05-17T14:23:13.943Z,16.07
2023-05-17T14:25:43.783Z,15.88
2023-05-17T14:28:13.661Z,16.04
2023-05-17T14:30:43.426Z,16.12
2023-05-17T14:33:11.688Z,16.12
2023-05-17T14:35:39.794Z,16.06
2023-05-17T14:38:07.816Z,15.85
2023-05-17T14:40:35.892Z,15.65
2023-05-17T14:43:04.174Z,15.52
2023-05-17T14:45:32.358Z,15.32
2023-05-17T14:48:01.929Z,15.35
2023-05-17T14:50:33.089Z,15.48
2023-05-17T14:53:01.153Z,15.57
2023-05-17T14:55:30.238Z,15.30
2023-05-17T14:57:59.345Z,15.42
2023-05-17T15:00:27.341Z,15.59
2023-05-17T15:02:55.377Z,15.28
2023-05-17T15:05:31.574Z,15.22
2023-05-17T15:07:59.745Z,15.14
2023-05-17T15:10:27.913Z,15.10
2023-05-17T15:12:55.996Z,15.06
2023-05-17T15:15:24.238Z,15.33
2023-05-17T15:17:52.998Z,15.33
2023-05-17T15:20:21.407Z,15.28
2023-05-17T15:22:50.961Z,15.34
2023-05-17T15:25:19.163Z,15.29
2023-05-17T15:27:47.391Z,15.26
2023-05-17T15:30:16.219Z,15.47
2023-05-17T15:32:44.177Z,15.51
2023-05-17T15:35:12.439Z,15.16
2023-05-17T15:37:40.658Z,15.09
2023-05-17T15:40:11.960Z,15.14
2023-05-17T15:42:40.081Z,15.20
2023-05-17T15:45:09.426Z,15.01
2023-05-17T15:47:42.985Z,14.92
2023-05-17T15:50:12.485Z,14.74
2023-05-17T15:52:40.940Z,14.71
2023-05-17T15:55:11.872Z,14.78
2023-05-17T15:57:40.136Z,14.85
2023-05-17T16:00:09.511Z,14.64
2023-05-17T16:02:37.729Z,14.79
2023-05-17T16:05:06.364Z,14.90
2023-05-17T16:07:34.475Z,14.91
2023-05-17T16:10:02.571Z,14.68
2023-05-17T16:12:32.063Z,14.82
2023-05-17T16:15:00.185Z,14.71
2023-05-17T16:17:28.780Z,14.67
2023-05-17T16:19:56.825Z,14.69
2023-05-17T16:22:24.878Z,14.49
2023-05-17T16:24:53.724Z,14.61
2023-05-17T16:27:22.034Z,14.78
2023-05-17T16:29:51.464Z,14.84
2023-05-17T16:32:19.497Z,14.77
2023-05-17T16:34:47.469Z,14.64
2023-05-17T16:37:16.161Z,14.41
2023-05-17T16:39:44.155Z,14.37
2023-05-17T16:42:12.106Z,14.23
2023-05-17T16:44:40.210Z,14.35
2023-05-17T16:47:09.592Z,14.45
2023-05-17T16:49:38.769Z,14.34
2023-05-17T16:52:07.616Z,14.26
2023-05-17T16:54:36.752Z,14.22
2023-05-17T16:57:08.037Z,14.02
2023-05-17T16:59:36.699Z,14.25
2023-05-17T17:02:04.997Z,14.36
2023-05-17T17:04:34.394Z,14.40
2023-05-17T17:07:02.869Z,14.44
2023-05-17T17:09:31.748Z,14.47
2023-05-17T17:12:02.830Z,14.47
2023-05-17T17:14:34.968Z,14.38
2023-05-17T17:17:03.149Z,14.27
2023-05-17T17:19:35.775Z,14.26
2023-05-17T17:22:05.624Z,14.08
2023-05-17T17:24:34.692Z,13.99
2023-05-17T17:27:02.663Z,13.68
2023-05-17T17:29:34.144Z,13.87
2023-05-17T17:32:02.459Z,13.83
2023-05-17T17:34:33.783Z,13.80
2023-05-17T17:37:03.325Z,13.76
2023-05-17T17:39:31.993Z,13.77
2023-05-17T17:41:59.950Z,13.81
2023-05-17T17:44:27.958Z,13.71
2023-05-17T17:46:56.069Z,13.67
2023-05-17T17:49:24.047Z,13.69
2023-05-17T17:51:52.091Z,13.64
2023-05-17T17:54:21.560Z,13.52
2023-05-17T17:56:49.733Z,13.59
2023-05-17T17:59:17.783Z,13.48
2023-05-17T18:01:45.875Z,13.47
2023-05-17T18:04:16.172Z,13.62
2023-05-17T18:06:45.888Z,13.57
2023-05-17T18:09:13.947Z,13.63
2023-05-17T18:11:43.380Z,13.57
2023-05-17T18:14:12.361Z,13.61
2023-05-17T18:16:40.369Z,13.68
2023-05-17T18:19:08.618Z,13.59
2023-05-17T18:21:39.330Z,13.35
2023-05-17T18:24:08.101Z,13.30
2023-05-17T18:26:38.337Z,13.22
2023-05-17T18:29:07.765Z,13.29
2023-05-17T18:31:39.049Z,13.20
2023-05-17T18:34:07.460Z,13.09
2023-05-17T18:36:38.361Z,13.18
2023-05-17T18:39:06.293Z,13.16
2023-05-17T18:41:34.939Z,13.21
2023-05-17T18:44:02.924Z,13.18
2023-05-17T18:46:32.385Z,13.22
2023-05-17T18:49:00.441Z,13.20
2023-05-17T18:51:28.962Z,13.21
2023-05-17T18:53:56.948Z,13.13
2023-05-17T18:56:25.418Z,13.10
2023-05-17T18:58:54.000Z,13.05
2023-05-17T19:01:22.331Z,12.93
2023-05-17T19:03:55.206Z,12.94
2023-05-17T19:06:26.376Z,12.86
2023-05-17T19:08:54.901Z,12.81
2023-05-17T19:11:23.374Z,12.70
2023-05-17T19:13:51.467Z,12.63
2023-05-17T19:16:19.550Z,12.64
2023-05-17T19:18:47.517Z,12.78
2023-05-17T19:21:19.558Z,12.79
2023-05-17T19:23:47.465Z,12.75
2023-05-17T19:26:15.387Z,12.76
2023-05-17T19:28:43.437Z,12.72
2023-05-17T19:31:14.305Z,12.68
2023-05-17T19:33:42.552Z,12.69
2023-05-17T19:36:11.025Z,12.66
2023-05-17T19:38:40.380Z,12.47
2023-05-17T19:41:09.434Z,12.54
2023-05-17T19:43:38.362Z,12.57
2023-05-17T19:46:10.500Z,12.64
2023-05-17T19:48:39.548Z,12.55
2023-05-17T19:51:07.616Z,12.51
2023-05-17T19:53:48.294Z,12.56
2023-05-17T19:56:23.973Z,12.45
2023-05-17T19:58:52.510Z,12.51
2023-05-17T20:01:21.471Z,12.59
2023-05-17T20:03:51.949Z,12.60
2023-05-17T20:06:20.125Z,12.46
2023-05-17T20:08:48.190Z,12.57
2023-05-17T20:11:16.680Z,12.57
2023-05-17T20:13:46.193Z,12.55
2023-05-17T20:16:14.213Z,12.64
2023-05-17T20:18:44.473Z,12.60
2023-05-17T20:21:24.473Z,12.57
2023-05-17T20:23:56.689Z,12.52
2023-05-17T20:26:27.329Z,12.52
2023-05-17T20:28:56.995Z,12.46
2023-05-17T20:31:24.985Z,12.42
2023-05-17T20:33:53.036Z,12.46
2023-05-17T20:36:21.222Z,12.44
2023-05-17T20:38:49.238Z,12.45
2023-05-17T20:41:17.282Z,12.54
2023-05-17T20:43:47.488Z,12.43
2023-05-17T20:46:17.743Z,12.52
2023-05-17T20:48:48.065Z,12.48
2023-05-17T20:51:17.751Z,12.34
2023-05-17T20:53:46.416Z,12.39
2023-05-17T20:56:16.298Z,12.35
2023-05-17T20:58:44.297Z,12.17
2023-05-17T21:01:12.422Z,12.17
2023-05-17T21:03:43.441Z,12.21
2023-05-17T21:06:11.755Z,12.15
2023-05-17T21:08:40.134Z,12.04
2023-05-17T21:11:08.234Z,12.00
2023-05-17T21:13:36.943Z,11.98
2023-05-17T21:16:05.345Z,12.00
2023-05-17T21:18:42.085Z,11.88
2023-05-17T21:21:10.185Z,11.88
2023-05-17T21:23:38.216Z,11.88
2023-05-17T21:26:07.728Z,11.75
2023-05-17T21:28:36.524Z,11.85
2023-05-17T21:31:05.251Z,11.88
2023-05-17T21:33:38.206Z,11.78
2023-05-17T21:36:07.852Z,11.97
2023-05-17T21:38:36.704Z,11.96
2023-05-17T21:41:05.197Z,11.89
2023-05-17T21:43:33.146Z,11.88
2023-05-17T21:46:01.310Z,11.84
2023-05-17T21:48:30.031Z,11.77
2023-05-17T21:50:58.075Z,11.74
2023-05-17T21:53:27.838Z,11.77
2023-05-17T21:56:01.892Z,11.72
2023-05-17T21:58:31.869Z,11.65
2023-05-17T22:01:03.011Z,11.62
2023-05-17T22:03:31.626Z,11.61
2023-05-17T22:05:59.848Z,11.55
2023-05-17T22:08:29.417Z,11.58
2023-05-17T22:10:57.636Z,11.42
2023-05-17T22:13:26.838Z,11.43
2023-05-17T22:15:57.685Z,11.33
2023-05-17T22:18:26.942Z,11.28
2023-05-17T22:20:59.606Z,11.29
2023-05-17T22:23:29.362Z,11.36
2023-05-17T22:26:00.478Z,11.43
2023-05-17T22:28:29.788Z,11.34
2023-05-17T22:30:58.229Z,11.40
2023-05-17T22:33:29.868Z,11.39
2023-05-17T22:35:58.856Z,11.36
2023-05-17T22:38:27.093Z,11.32
2023-05-17T22:40:57.002Z,11.29
2023-05-17T22:43:28.177Z,11.35
2023-05-17T22:46:00.330Z,11.50
2023-05-17T22:48:30.593Z,11.51
2023-05-17T22:50:59.036Z,11.51
2023-05-17T22:53:27.294Z,11.50
2023-05-17T22:56:00.485Z,11.48
2023-05-17T22:58:28.726Z,11.52
2023-05-17T23:01:00.795Z,11.46
2023-05-17T23:03:29.055Z,11.49
2023-05-17T23:06:03.150Z,11.52
2023-05-17T23:08:31.332Z,11.58
2023-05-17T23:11:01.821Z,11.45
2023-05-17T23:13:29.807Z,11.37
2023-05-17T23:15:57.940Z,11.47
2023-05-17T23:18:27.588Z,11.58
2023-05-17T23:20:55.677Z,11.61
2023-05-17T23:23:24.200Z,11.55
2023-05-17T23:25:52.449Z,11.49
2023-05-17T23:28:23.910Z,11.50
2023-05-17T23:30:53.719Z,11.59
2023-05-17T23:33:21.805Z,11.58
2023-05-17T23:35:51.219Z,11.56
2023-05-17T23:38:19.387Z,11.51
2023-05-17T23:40:47.473Z,11.61
2023-05-17T23:43:15.564Z,11.61
2023-05-17T23:45:45.077Z,11.58
2023-05-17T23:48:16.157Z,11.60
2023-05-17T23:50:44.807Z,11.53
2023-05-17T23:53:15.816Z,11.46
2023-05-17T23:55:43.867Z,11.43
2023-05-17T23:58:14.627Z,11.41
